UASK 090930Z 32002MPS 5000 -SN OVC035 M10/M13 Q1011 NOSIG RMK QFE733/0978
QNH:(hPa/inHg/mmHg)1011 / 29.85 / 758
QFE:(hPa/inHg/mmHg)976 / 28.82 / 732
Temperature-10
Dew Point-13
Visibility5000
WeatherLight Snow
Cloud CoverOVC (3500);
Transition Altitude10000 ft.
Transition LevelFL120
SQUAWK